sensor_id;sensor_type;location;lat;lon;timestamp;P1;durP1;ratioP1;P2;durP2;ratioP2
75441;SDS011;64019;48.312;14.226;2023-03-01T00:02:03;25.20;;;11.97;;
75441;SDS011;64019;48.312;14.226;2023-03-01T00:04:29;24.63;;;11.87;;
75441;SDS011;64019;48.312;14.226;2023-03-01T00:06:55;25.07;;;11.43;;
75441;SDS011;64019;48.312;14.226;2023-03-01T00:09:21;22.57;;;11.60;;
75441;SDS011;64019;48.312;14.226;2023-03-01T00:11:47;24.57;;;11.50;;
75441;SDS011;64019;48.312;14.226;2023-03-01T00:14:13;25.23;;;11.43;;
75441;SDS011;64019;48.312;14.226;2023-03-01T00:16:41;22.57;;;12.30;;
75441;SDS011;64019;48.312;14.226;2023-03-01T00:19:08;21.80;;;11.33;;
75441;SDS011;64019;48.312;14.226;2023-03-01T00:21:40;19.83;;;10.83;;
75441;SDS011;64019;48.312;14.226;2023-03-01T00:24:06;24.17;;;11.73;;
75441;SDS011;64019;48.312;14.226;2023-03-01T00:26:32;26.20;;;11.37;;
75441;SDS011;64019;48.312;14.226;2023-03-01T00:28:58;21.47;;;10.97;;
75441;SDS011;64019;48.312;14.226;2023-03-01T00:31:25;20.63;;;11.03;;
75441;SDS011;64019;48.312;14.226;2023-03-01T00:33:53;24.77;;;12.20;;
75441;SDS011;64019;48.312;14.226;2023-03-01T00:36:23;26.53;;;12.37;;
75441;SDS011;64019;48.312;14.226;2023-03-01T00:38:50;22.37;;;10.87;;
75441;SDS011;64019;48.312;14.226;2023-03-01T00:41:16;23.07;;;11.37;;
75441;SDS011;64019;48.312;14.226;2023-03-01T00:43:43;24.63;;;11.17;;
75441;SDS011;64019;48.312;14.226;2023-03-01T00:46:10;22.13;;;11.47;;
75441;SDS011;64019;48.312;14.226;2023-03-01T00:48:38;21.37;;;11.03;;
75441;SDS011;64019;48.312;14.226;2023-03-01T00:51:05;26.00;;;11.90;;
75441;SDS011;64019;48.312;14.226;2023-03-01T00:53:35;23.70;;;11.87;;
75441;SDS011;64019;48.312;14.226;2023-03-01T00:56:01;25.23;;;11.63;;
75441;SDS011;64019;48.312;14.226;2023-03-01T00:58:28;20.53;;;10.00;;
75441;SDS011;64019;48.312;14.226;2023-03-01T01:00:54;29.73;;;12.30;;
75441;SDS011;64019;48.312;14.226;2023-03-01T01:03:20;23.60;;;11.47;;
75441;SDS011;64019;48.312;14.226;2023-03-01T01:05:46;26.47;;;11.50;;
75441;SDS011;64019;48.312;14.226;2023-03-01T01:08:12;22.73;;;10.77;;
75441;SDS011;64019;48.312;14.226;2023-03-01T01:10:37;22.37;;;10.87;;
75441;SDS011;64019;48.312;14.226;2023-03-01T01:13:03;29.23;;;11.23;;
75441;SDS011;64019;48.312;14.226;2023-03-01T01:15:32;25.77;;;11.33;;
75441;SDS011;64019;48.312;14.226;2023-03-01T01:17:59;23.80;;;11.43;;
75441;SDS011;64019;48.312;14.226;2023-03-01T01:20:25;22.10;;;11.80;;
75441;SDS011;64019;48.312;14.226;2023-03-01T01:22:51;25.13;;;12.03;;
75441;SDS011;64019;48.312;14.226;2023-03-01T01:25:17;24.27;;;12.30;;
75441;SDS011;64019;48.312;14.226;2023-03-01T01:27:43;21.67;;;10.93;;
75441;SDS011;64019;48.312;14.226;2023-03-01T01:30:09;28.17;;;12.27;;
75441;SDS011;64019;48.312;14.226;2023-03-01T01:32:35;25.20;;;11.30;;
75441;SDS011;64019;48.312;14.226;2023-03-01T01:35:00;24.93;;;12.20;;
75441;SDS011;64019;48.312;14.226;2023-03-01T01:37:26;25.50;;;11.43;;
75441;SDS011;64019;48.312;14.226;2023-03-01T01:39:56;23.50;;;11.60;;
75441;SDS011;64019;48.312;14.226;2023-03-01T01:42:24;25.40;;;12.07;;
75441;SDS011;64019;48.312;14.226;2023-03-01T01:45:15;28.47;;;11.80;;
75441;SDS011;64019;48.312;14.226;2023-03-01T01:48:05;23.63;;;11.60;;
75441;SDS011;64019;48.312;14.226;2023-03-01T01:50:35;26.80;;;13.07;;
75441;SDS011;64019;48.312;14.226;2023-03-01T01:53:08;25.97;;;11.90;;
75441;SDS011;64019;48.312;14.226;2023-03-01T01:55:36;24.20;;;11.50;;
75441;SDS011;64019;48.312;14.226;2023-03-01T01:58:04;26.30;;;12.23;;
75441;SDS011;64019;48.312;14.226;2023-03-01T02:00:32;27.83;;;13.17;;
75441;SDS011;64019;48.312;14.226;2023-03-01T02:02:59;24.43;;;11.40;;
75441;SDS011;64019;48.312;14.226;2023-03-01T02:05:39;27.93;;;11.97;;
75441;SDS011;64019;48.312;14.226;2023-03-01T02:08:20;30.23;;;13.00;;
75441;SDS011;64019;48.312;14.226;2023-03-01T02:10:48;25.00;;;12.17;;
75441;SDS011;64019;48.312;14.226;2023-03-01T02:13:15;27.70;;;12.53;;
75441;SDS011;64019;48.312;14.226;2023-03-01T02:15:40;28.50;;;12.23;;
75441;SDS011;64019;48.312;14.226;2023-03-01T02:18:09;24.73;;;12.13;;
75441;SDS011;64019;48.312;14.226;2023-03-01T02:20:43;26.63;;;13.13;;
75441;SDS011;64019;48.312;14.226;2023-03-01T02:23:16;26.53;;;11.73;;
75441;SDS011;64019;48.312;14.226;2023-03-01T02:25:45;29.90;;;13.13;;
75441;SDS011;64019;48.312;14.226;2023-03-01T02:28:25;27.43;;;12.90;;
75441;SDS011;64019;48.312;14.226;2023-03-01T02:30:50;26.17;;;12.67;;
75441;SDS011;64019;48.312;14.226;2023-03-01T02:33:37;30.03;;;13.00;;
75441;SDS011;64019;48.312;14.226;2023-03-01T02:36:05;29.77;;;12.80;;
75441;SDS011;64019;48.312;14.226;2023-03-01T02:38:36;25.67;;;12.57;;
75441;SDS011;64019;48.312;14.226;2023-03-01T02:41:02;30.13;;;14.13;;
75441;SDS011;64019;48.312;14.226;2023-03-01T02:43:31;28.40;;;12.90;;
75441;SDS011;64019;48.312;14.226;2023-03-01T02:45:59;28.97;;;12.97;;
75441;SDS011;64019;48.312;14.226;2023-03-01T02:48:38;30.07;;;12.27;;
75441;SDS011;64019;48.312;14.226;2023-03-01T02:54:21;28.73;;;12.47;;
75441;SDS011;64019;48.312;14.226;2023-03-01T02:56:51;26.23;;;12.23;;
75441;SDS011;64019;48.312;14.226;2023-03-01T02:59:18;27.97;;;13.20;;
75441;SDS011;64019;48.312;14.226;2023-03-01T03:01:46;26.70;;;12.60;;
75441;SDS011;64019;48.312;14.226;2023-03-01T03:04:13;26.03;;;11.63;;
75441;SDS011;64019;48.312;14.226;2023-03-01T03:06:42;29.37;;;12.77;;
75441;SDS011;64019;48.312;14.226;2023-03-01T03:09:09;27.37;;;12.70;;
75441;SDS011;64019;48.312;14.226;2023-03-01T03:11:35;29.30;;;12.33;;
75441;SDS011;64019;48.312;14.226;2023-03-01T03:14:02;27.87;;;12.53;;
75441;SDS011;64019;48.312;14.226;2023-03-01T03:16:28;26.67;;;12.17;;
75441;SDS011;64019;48.312;14.226;2023-03-01T03:18:54;33.53;;;12.90;;
75441;SDS011;64019;48.312;14.226;2023-03-01T03:21:29;29.97;;;13.27;;
75441;SDS011;64019;48.312;14.226;2023-03-01T03:23:56;25.90;;;12.27;;
75441;SDS011;64019;48.312;14.226;2023-03-01T03:26:22;25.27;;;13.83;;
75441;SDS011;64019;48.312;14.226;2023-03-01T03:28:48;33.13;;;12.87;;
75441;SDS011;64019;48.312;14.226;2023-03-01T03:31:13;30.60;;;13.20;;
75441;SDS011;64019;48.312;14.226;2023-03-01T03:33:39;27.87;;;12.90;;
75441;SDS011;64019;48.312;14.226;2023-03-01T03:36:05;26.13;;;12.37;;
75441;SDS011;64019;48.312;14.226;2023-03-01T03:38:31;26.37;;;12.53;;
75441;SDS011;64019;48.312;14.226;2023-03-01T03:41:04;29.77;;;12.47;;
75441;SDS011;64019;48.312;14.226;2023-03-01T03:43:32;28.13;;;13.20;;
75441;SDS011;64019;48.312;14.226;2023-03-01T03:46:00;25.30;;;12.10;;
75441;SDS011;64019;48.312;14.226;2023-03-01T03:48:30;26.13;;;12.73;;
75441;SDS011;64019;48.312;14.226;2023-03-01T03:51:04;28.97;;;12.27;;
75441;SDS011;64019;48.312;14.226;2023-03-01T03:53:30;26.40;;;11.93;;
75441;SDS011;64019;48.312;14.226;2023-03-01T03:55:56;26.23;;;11.90;;
75441;SDS011;64019;48.312;14.226;2023-03-01T03:58:23;24.70;;;11.27;;
75441;SDS011;64019;48.312;14.226;2023-03-01T04:00:54;27.47;;;12.57;;
75441;SDS011;64019;48.312;14.226;2023-03-01T04:03:21;26.70;;;11.67;;
75441;SDS011;64019;48.312;14.226;2023-03-01T04:05:48;25.87;;;12.17;;
75441;SDS011;64019;48.312;14.226;2023-03-01T04:08:15;26.13;;;11.90;;
75441;SDS011;64019;48.312;14.226;2023-03-01T04:10:45;30.47;;;12.77;;
75441;SDS011;64019;48.312;14.226;2023-03-01T04:13:13;24.70;;;11.67;;
75441;SDS011;64019;48.312;14.226;2023-03-01T04:15:41;22.00;;;11.20;;
75441;SDS011;64019;48.312;14.226;2023-03-01T04:18:08;32.97;;;13.40;;
75441;SDS011;64019;48.312;14.226;2023-03-01T04:20:36;24.37;;;11.97;;
75441;SDS011;64019;48.312;14.226;2023-03-01T04:23:04;26.20;;;11.87;;
75441;SDS011;64019;48.312;14.226;2023-03-01T04:25:41;24.23;;;11.17;;
75441;SDS011;64019;48.312;14.226;2023-03-01T04:28:10;28.87;;;11.17;;
75441;SDS011;64019;48.312;14.226;2023-03-01T04:30:37;27.57;;;12.37;;
75441;SDS011;64019;48.312;14.226;2023-03-01T04:33:06;31.03;;;12.20;;
75441;SDS011;64019;48.312;14.226;2023-03-01T04:35:34;26.50;;;12.47;;
75441;SDS011;64019;48.312;14.226;2023-03-01T04:38:00;28.40;;;12.43;;
75441;SDS011;64019;48.312;14.226;2023-03-01T04:40:26;29.97;;;12.57;;
75441;SDS011;64019;48.312;14.226;2023-03-01T04:42:52;25.43;;;12.03;;
75441;SDS011;64019;48.312;14.226;2023-03-01T04:45:18;28.33;;;11.57;;
75441;SDS011;64019;48.312;14.226;2023-03-01T04:47:44;26.53;;;11.47;;
75441;SDS011;64019;48.312;14.226;2023-03-01T04:50:12;27.00;;;12.33;;
75441;SDS011;64019;48.312;14.226;2023-03-01T04:52:40;26.20;;;11.77;;
75441;SDS011;64019;48.312;14.226;2023-03-01T04:55:05;25.43;;;12.63;;
75441;SDS011;64019;48.312;14.226;2023-03-01T04:57:32;25.63;;;12.00;;
75441;SDS011;64019;48.312;14.226;2023-03-01T04:59:58;27.77;;;13.33;;
75441;SDS011;64019;48.312;14.226;2023-03-01T05:02:23;32.87;;;12.50;;
75441;SDS011;64019;48.312;14.226;2023-03-01T05:04:49;28.50;;;12.77;;
75441;SDS011;64019;48.312;14.226;2023-03-01T05:07:15;29.50;;;12.97;;
75441;SDS011;64019;48.312;14.226;2023-03-01T05:09:44;24.77;;;12.00;;
75441;SDS011;64019;48.312;14.226;2023-03-01T05:12:14;36.03;;;14.00;;
75441;SDS011;64019;48.312;14.226;2023-03-01T05:14:40;24.43;;;12.63;;
75441;SDS011;64019;48.312;14.226;2023-03-01T05:17:06;26.93;;;12.53;;
75441;SDS011;64019;48.312;14.226;2023-03-01T05:19:33;28.57;;;13.00;;
75441;SDS011;64019;48.312;14.226;2023-03-01T05:21:59;24.37;;;12.80;;
75441;SDS011;64019;48.312;14.226;2023-03-01T05:24:31;29.07;;;13.47;;
75441;SDS011;64019;48.312;14.226;2023-03-01T05:26:59;28.90;;;12.63;;
75441;SDS011;64019;48.312;14.226;2023-03-01T05:29:26;30.57;;;13.27;;
75441;SDS011;64019;48.312;14.226;2023-03-01T05:31:53;28.73;;;13.30;;
75441;SDS011;64019;48.312;14.226;2023-03-01T05:34:24;31.23;;;13.53;;
75441;SDS011;64019;48.312;14.226;2023-03-01T05:36:51;32.10;;;14.20;;
75441;SDS011;64019;48.312;14.226;2023-03-01T05:39:18;36.87;;;14.07;;
75441;SDS011;64019;48.312;14.226;2023-03-01T05:41:55;30.57;;;13.23;;
75441;SDS011;64019;48.312;14.226;2023-03-01T05:44:22;30.23;;;14.20;;
75441;SDS011;64019;48.312;14.226;2023-03-01T05:46:48;33.57;;;13.93;;
75441;SDS011;64019;48.312;14.226;2023-03-01T05:49:14;29.33;;;13.50;;
75441;SDS011;64019;48.312;14.226;2023-03-01T05:51:41;32.30;;;13.13;;
75441;SDS011;64019;48.312;14.226;2023-03-01T05:54:08;29.43;;;13.57;;
75441;SDS011;64019;48.312;14.226;2023-03-01T05:56:35;27.80;;;13.27;;
75441;SDS011;64019;48.312;14.226;2023-03-01T05:59:01;36.90;;;14.50;;
75441;SDS011;64019;48.312;14.226;2023-03-01T06:01:28;31.47;;;14.53;;
75441;SDS011;64019;48.312;14.226;2023-03-01T06:03:54;29.13;;;13.97;;
75441;SDS011;64019;48.312;14.226;2023-03-01T06:06:21;32.33;;;14.60;;
75441;SDS011;64019;48.312;14.226;2023-03-01T06:08:47;33.93;;;13.83;;
75441;SDS011;64019;48.312;14.226;2023-03-01T06:11:13;30.50;;;13.70;;
75441;SDS011;64019;48.312;14.226;2023-03-01T06:13:38;30.73;;;13.80;;
75441;SDS011;64019;48.312;14.226;2023-03-01T06:16:06;29.30;;;13.87;;
75441;SDS011;64019;48.312;14.226;2023-03-01T06:18:32;36.73;;;15.53;;
75441;SDS011;64019;48.312;14.226;2023-03-01T06:20:57;28.67;;;14.17;;
75441;SDS011;64019;48.312;14.226;2023-03-01T06:23:23;28.93;;;14.00;;
75441;SDS011;64019;48.312;14.226;2023-03-01T06:25:49;31.10;;;13.80;;
75441;SDS011;64019;48.312;14.226;2023-03-01T06:28:15;35.17;;;14.47;;
75441;SDS011;64019;48.312;14.226;2023-03-01T06:30:41;34.90;;;15.10;;
75441;SDS011;64019;48.312;14.226;2023-03-01T06:33:07;33.37;;;14.27;;
75441;SDS011;64019;48.312;14.226;2023-03-01T06:35:33;31.73;;;14.03;;
75441;SDS011;64019;48.312;14.226;2023-03-01T06:37:59;31.27;;;14.53;;
75441;SDS011;64019;48.312;14.226;2023-03-01T06:40:26;24.20;;;12.77;;
75441;SDS011;64019;48.312;14.226;2023-03-01T06:42:52;30.80;;;14.00;;
75441;SDS011;64019;48.312;14.226;2023-03-01T06:45:18;35.83;;;13.90;;
75441;SDS011;64019;48.312;14.226;2023-03-01T06:47:45;37.20;;;14.17;;
75441;SDS011;64019;48.312;14.226;2023-03-01T06:50:11;30.33;;;13.50;;
75441;SDS011;64019;48.312;14.226;2023-03-01T06:52:36;29.03;;;14.13;;
75441;SDS011;64019;48.312;14.226;2023-03-01T06:55:03;30.53;;;13.73;;
75441;SDS011;64019;48.312;14.226;2023-03-01T06:57:29;35.03;;;14.60;;
75441;SDS011;64019;48.312;14.226;2023-03-01T06:59:55;31.27;;;13.50;;
75441;SDS011;64019;48.312;14.226;2023-03-01T07:02:20;33.17;;;14.27;;
75441;SDS011;64019;48.312;14.226;2023-03-01T07:04:48;34.70;;;14.40;;
75441;SDS011;64019;48.312;14.226;2023-03-01T07:07:14;26.77;;;12.77;;
75441;SDS011;64019;48.312;14.226;2023-03-01T07:09:40;32.00;;;13.33;;
75441;SDS011;64019;48.312;14.226;2023-03-01T07:12:06;31.13;;;14.10;;
75441;SDS011;64019;48.312;14.226;2023-03-01T07:14:32;27.73;;;13.33;;
75441;SDS011;64019;48.312;14.226;2023-03-01T07:16:58;29.90;;;12.90;;
75441;SDS011;64019;48.312;14.226;2023-03-01T07:19:24;27.53;;;13.27;;
75441;SDS011;64019;48.312;14.226;2023-03-01T07:21:49;32.70;;;13.00;;
75441;SDS011;64019;48.312;14.226;2023-03-01T07:24:15;30.57;;;13.37;;
75441;SDS011;64019;48.312;14.226;2023-03-01T07:26:41;28.83;;;14.77;;
75441;SDS011;64019;48.312;14.226;2023-03-01T07:29:07;25.53;;;12.90;;
75441;SDS011;64019;48.312;14.226;2023-03-01T07:31:34;32.57;;;13.83;;
75441;SDS011;64019;48.312;14.226;2023-03-01T07:34:00;32.07;;;13.13;;
75441;SDS011;64019;48.312;14.226;2023-03-01T07:36:26;29.80;;;13.10;;
75441;SDS011;64019;48.312;14.226;2023-03-01T07:38:52;30.57;;;13.43;;
75441;SDS011;64019;48.312;14.226;2023-03-01T07:41:20;29.33;;;13.53;;
75441;SDS011;64019;48.312;14.226;2023-03-01T07:43:46;26.80;;;12.53;;
75441;SDS011;64019;48.312;14.226;2023-03-01T07:46:12;29.63;;;12.70;;
75441;SDS011;64019;48.312;14.226;2023-03-01T07:48:37;26.77;;;12.97;;
75441;SDS011;64019;48.312;14.226;2023-03-01T07:51:04;31.23;;;13.77;;
75441;SDS011;64019;48.312;14.226;2023-03-01T07:53:31;29.47;;;13.37;;
75441;SDS011;64019;48.312;14.226;2023-03-01T08:08:46;29.30;;;12.77;;
75441;SDS011;64019;48.312;14.226;2023-03-01T08:11:13;31.80;;;13.13;;
75441;SDS011;64019;48.312;14.226;2023-03-01T08:13:39;29.27;;;12.83;;
75441;SDS011;64019;48.312;14.226;2023-03-01T08:16:09;29.37;;;13.73;;
75441;SDS011;64019;48.312;14.226;2023-03-01T08:18:36;29.07;;;13.67;;
75441;SDS011;64019;48.312;14.226;2023-03-01T08:21:12;27.60;;;12.70;;
75441;SDS011;64019;48.312;14.226;2023-03-01T08:23:42;29.13;;;12.87;;
75441;SDS011;64019;48.312;14.226;2023-03-01T08:28:36;27.00;;;12.17;;
75441;SDS011;64019;48.312;14.226;2023-03-01T08:31:02;33.03;;;13.60;;
75441;SDS011;64019;48.312;14.226;2023-03-01T08:33:28;25.87;;;12.87;;
75441;SDS011;64019;48.312;14.226;2023-03-01T08:36:02;27.60;;;12.37;;
75441;SDS011;64019;48.312;14.226;2023-03-01T08:38:28;26.00;;;13.10;;
75441;SDS011;64019;48.312;14.226;2023-03-01T08:40:54;26.53;;;12.27;;
75441;SDS011;64019;48.312;14.226;2023-03-01T08:43:19;25.97;;;11.83;;
75441;SDS011;64019;48.312;14.226;2023-03-01T08:45:47;29.43;;;12.50;;
75441;SDS011;64019;48.312;14.226;2023-03-01T08:48:13;23.80;;;11.93;;
75441;SDS011;64019;48.312;14.226;2023-03-01T08:50:39;27.17;;;11.93;;
75441;SDS011;64019;48.312;14.226;2023-03-01T08:53:04;22.40;;;11.47;;
75441;SDS011;64019;48.312;14.226;2023-03-01T08:55:30;23.07;;;11.70;;
75441;SDS011;64019;48.312;14.226;2023-03-01T08:57:56;25.03;;;11.37;;
75441;SDS011;64019;48.312;14.226;2023-03-01T09:00:24;21.67;;;10.70;;
75441;SDS011;64019;48.312;14.226;2023-03-01T09:02:50;28.50;;;11.30;;
75441;SDS011;64019;48.312;14.226;2023-03-01T09:05:15;26.63;;;11.60;;
75441;SDS011;64019;48.312;14.226;2023-03-01T09:07:41;23.13;;;10.97;;
75441;SDS011;64019;48.312;14.226;2023-03-01T09:10:07;22.00;;;10.90;;
75441;SDS011;64019;48.312;14.226;2023-03-01T09:12:33;24.50;;;11.40;;
75441;SDS011;64019;48.312;14.226;2023-03-01T09:14:59;22.30;;;11.00;;
75441;SDS011;64019;48.312;14.226;2023-03-01T09:17:24;23.00;;;10.27;;
75441;SDS011;64019;48.312;14.226;2023-03-01T09:19:50;28.27;;;10.33;;
75441;SDS011;64019;48.312;14.226;2023-03-01T09:22:16;21.27;;;10.20;;
75441;SDS011;64019;48.312;14.226;2023-03-01T09:24:41;21.30;;;10.20;;
75441;SDS011;64019;48.312;14.226;2023-03-01T09:27:07;24.60;;;11.20;;
75441;SDS011;64019;48.312;14.226;2023-03-01T09:29:34;26.90;;;10.40;;
75441;SDS011;64019;48.312;14.226;2023-03-01T09:32:01;23.73;;;10.00;;
75441;SDS011;64019;48.312;14.226;2023-03-01T09:34:27;20.27;;;9.97;;
75441;SDS011;64019;48.312;14.226;2023-03-01T09:36:52;20.30;;;9.07;;
75441;SDS011;64019;48.312;14.226;2023-03-01T09:39:18;24.60;;;10.13;;
75441;SDS011;64019;48.312;14.226;2023-03-01T09:41:59;21.30;;;9.97;;
75441;SDS011;64019;48.312;14.226;2023-03-01T09:44:38;20.13;;;11.03;;
75441;SDS011;64019;48.312;14.226;2023-03-01T09:47:20;21.70;;;11.20;;
75441;SDS011;64019;48.312;14.226;2023-03-01T09:50:20;22.50;;;10.80;;
75441;SDS011;64019;48.312;14.226;2023-03-01T09:57:59;23.97;;;10.53;;
75441;SDS011;64019;48.312;14.226;2023-03-01T10:00:42;22.60;;;10.63;;
75441;SDS011;64019;48.312;14.226;2023-03-01T10:06:02;24.10;;;10.57;;
75441;SDS011;64019;48.312;14.226;2023-03-01T10:11:18;30.10;;;12.47;;
75441;SDS011;64019;48.312;14.226;2023-03-01T10:13:54;25.83;;;11.53;;
75441;SDS011;64019;48.312;14.226;2023-03-01T10:19:30;22.97;;;10.60;;
75441;SDS011;64019;48.312;14.226;2023-03-01T10:22:20;22.23;;;10.27;;
75441;SDS011;64019;48.312;14.226;2023-03-01T10:24:53;24.77;;;10.60;;
75441;SDS011;64019;48.312;14.226;2023-03-01T10:29:54;21.03;;;8.87;;
75441;SDS011;64019;48.312;14.226;2023-03-01T10:32:45;20.77;;;9.30;;
75441;SDS011;64019;48.312;14.226;2023-03-01T10:40:28;21.33;;;9.63;;
75441;SDS011;64019;48.312;14.226;2023-03-01T10:42:54;18.97;;;7.93;;
75441;SDS011;64019;48.312;14.226;2023-03-01T10:45:30;17.67;;;8.10;;
75441;SDS011;64019;48.312;14.226;2023-03-01T10:50:39;20.63;;;7.80;;
75441;SDS011;64019;48.312;14.226;2023-03-01T10:53:16;29.63;;;8.70;;
75441;SDS011;64019;48.312;14.226;2023-03-01T10:56:06;16.20;;;8.03;;
75441;SDS011;64019;48.312;14.226;2023-03-01T10:58:34;24.47;;;8.63;;
75441;SDS011;64019;48.312;14.226;2023-03-01T11:01:05;18.27;;;7.97;;
75441;SDS011;64019;48.312;14.226;2023-03-01T11:03:40;22.83;;;8.60;;
75441;SDS011;64019;48.312;14.226;2023-03-01T11:08:39;17.40;;;8.10;;
75441;SDS011;64019;48.312;14.226;2023-03-01T11:13:55;16.70;;;7.90;;
75441;SDS011;64019;48.312;14.226;2023-03-01T11:16:41;20.13;;;8.97;;
75441;SDS011;64019;48.312;14.226;2023-03-01T11:21:34;14.70;;;7.67;;
75441;SDS011;64019;48.312;14.226;2023-03-01T11:24:03;19.07;;;8.10;;
75441;SDS011;64019;48.312;14.226;2023-03-01T11:26:31;18.03;;;8.70;;
75441;SDS011;64019;48.312;14.226;2023-03-01T11:29:02;16.10;;;8.53;;
75441;SDS011;64019;48.312;14.226;2023-03-01T11:31:31;16.73;;;8.10;;
75441;SDS011;64019;48.312;14.226;2023-03-01T11:39:17;15.90;;;7.00;;
75441;SDS011;64019;48.312;14.226;2023-03-01T11:41:44;18.40;;;7.20;;
75441;SDS011;64019;48.312;14.226;2023-03-01T11:44:18;19.30;;;7.73;;
75441;SDS011;64019;48.312;14.226;2023-03-01T12:01:02;14.67;;;7.70;;
75441;SDS011;64019;48.312;14.226;2023-03-01T12:06:27;13.57;;;6.90;;
75441;SDS011;64019;48.312;14.226;2023-03-01T12:09:14;13.30;;;6.67;;
75441;SDS011;64019;48.312;14.226;2023-03-01T12:12:15;14.30;;;6.53;;
75441;SDS011;64019;48.312;14.226;2023-03-01T12:20:29;15.37;;;6.00;;
75441;SDS011;64019;48.312;14.226;2023-03-01T12:23:20;15.97;;;6.30;;
75441;SDS011;64019;48.312;14.226;2023-03-01T12:29:07;12.83;;;7.00;;
75441;SDS011;64019;48.312;14.226;2023-03-01T12:47:58;16.03;;;7.43;;
75441;SDS011;64019;48.312;14.226;2023-03-01T12:50:41;14.93;;;6.77;;
75441;SDS011;64019;48.312;14.226;2023-03-01T12:53:22;18.10;;;7.87;;
75441;SDS011;64019;48.312;14.226;2023-03-01T12:55:54;19.80;;;7.57;;
75441;SDS011;64019;48.312;14.226;2023-03-01T13:01:01;16.10;;;7.53;;
75441;SDS011;64019;48.312;14.226;2023-03-01T13:06:24;15.43;;;6.93;;
75441;SDS011;64019;48.312;14.226;2023-03-01T13:11:56;18.63;;;7.77;;
75441;SDS011;64019;48.312;14.226;2023-03-01T13:16:53;23.73;;;8.57;;
75441;SDS011;64019;48.312;14.226;2023-03-01T13:19:20;19.50;;;7.97;;
75441;SDS011;64019;48.312;14.226;2023-03-01T13:21:51;19.40;;;8.20;;
75441;SDS011;64019;48.312;14.226;2023-03-01T13:29:46;21.27;;;9.23;;
75441;SDS011;64019;48.312;14.226;2023-03-01T13:37:35;17.73;;;8.57;;
75441;SDS011;64019;48.312;14.226;2023-03-01T13:42:49;22.20;;;8.87;;
75441;SDS011;64019;48.312;14.226;2023-03-01T13:45:24;20.87;;;8.70;;
75441;SDS011;64019;48.312;14.226;2023-03-01T13:48:11;20.73;;;9.63;;
75441;SDS011;64019;48.312;14.226;2023-03-01T13:50:51;19.03;;;7.83;;
75441;SDS011;64019;48.312;14.226;2023-03-01T13:53:24;20.43;;;8.40;;
75441;SDS011;64019;48.312;14.226;2023-03-01T13:55:52;16.50;;;7.67;;
75441;SDS011;64019;48.312;14.226;2023-03-01T14:03:21;16.23;;;8.00;;
75441;SDS011;64019;48.312;14.226;2023-03-01T14:06:07;17.63;;;7.47;;
75441;SDS011;64019;48.312;14.226;2023-03-01T14:08:33;19.40;;;7.97;;
75441;SDS011;64019;48.312;14.226;2023-03-01T14:19:19;16.57;;;7.57;;
75441;SDS011;64019;48.312;14.226;2023-03-01T14:21:58;18.07;;;7.43;;
75441;SDS011;64019;48.312;14.226;2023-03-01T14:25:05;15.57;;;7.10;;
75441;SDS011;64019;48.312;14.226;2023-03-01T14:27:38;14.10;;;7.27;;
75441;SDS011;64019;48.312;14.226;2023-03-01T14:30:11;18.10;;;7.03;;
75441;SDS011;64019;48.312;14.226;2023-03-01T14:32:38;19.63;;;7.33;;
75441;SDS011;64019;48.312;14.226;2023-03-01T14:35:18;16.40;;;6.40;;
75441;SDS011;64019;48.312;14.226;2023-03-01T14:37:49;17.87;;;7.13;;
75441;SDS011;64019;48.312;14.226;2023-03-01T14:40:56;14.33;;;6.73;;
75441;SDS011;64019;48.312;14.226;2023-03-01T14:43:08;16.87;;;7.33;;
75441;SDS011;64019;48.312;14.226;2023-03-01T14:45:37;15.30;;;6.67;;
75441;SDS011;64019;48.312;14.226;2023-03-01T14:48:03;20.23;;;7.80;;
75441;SDS011;64019;48.312;14.226;2023-03-01T14:50:32;15.27;;;7.57;;
75441;SDS011;64019;48.312;14.226;2023-03-01T14:53:05;13.97;;;6.27;;
75441;SDS011;64019;48.312;14.226;2023-03-01T14:55:34;14.83;;;5.53;;
75441;SDS011;64019;48.312;14.226;2023-03-01T14:58:03;10.10;;;6.17;;
75441;SDS011;64019;48.312;14.226;2023-03-01T15:00:31;17.77;;;6.03;;
75441;SDS011;64019;48.312;14.226;2023-03-01T15:03:05;16.13;;;6.90;;
75441;SDS011;64019;48.312;14.226;2023-03-01T15:05:38;16.50;;;6.33;;
75441;SDS011;64019;48.312;14.226;2023-03-01T15:08:05;16.13;;;6.60;;
75441;SDS011;64019;48.312;14.226;2023-03-01T15:10:33;16.00;;;6.80;;
75441;SDS011;64019;48.312;14.226;2023-03-01T15:13:10;13.70;;;6.97;;
75441;SDS011;64019;48.312;14.226;2023-03-01T15:15:38;18.90;;;6.40;;
75441;SDS011;64019;48.312;14.226;2023-03-01T15:18:21;16.53;;;6.70;;
75441;SDS011;64019;48.312;14.226;2023-03-01T15:20:51;14.87;;;6.83;;
75441;SDS011;64019;48.312;14.226;2023-03-01T15:23:19;17.80;;;6.73;;
75441;SDS011;64019;48.312;14.226;2023-03-01T15:25:51;13.43;;;6.07;;
75441;SDS011;64019;48.312;14.226;2023-03-01T15:28:30;15.90;;;6.93;;
75441;SDS011;64019;48.312;14.226;2023-03-01T15:31:26;13.20;;;6.33;;
75441;SDS011;64019;48.312;14.226;2023-03-01T15:33:53;14.57;;;6.83;;
75441;SDS011;64019;48.312;14.226;2023-03-01T15:36:49;18.33;;;7.93;;
75441;SDS011;64019;48.312;14.226;2023-03-01T15:42:05;13.07;;;6.77;;
75441;SDS011;64019;48.312;14.226;2023-03-01T15:45:06;20.97;;;7.80;;
75441;SDS011;64019;48.312;14.226;2023-03-01T15:47:33;19.10;;;7.77;;
75441;SDS011;64019;48.312;14.226;2023-03-01T15:50:00;14.43;;;6.87;;
75441;SDS011;64019;48.312;14.226;2023-03-01T15:52:28;13.47;;;7.37;;
75441;SDS011;64019;48.312;14.226;2023-03-01T15:55:03;16.13;;;7.00;;
75441;SDS011;64019;48.312;14.226;2023-03-01T15:57:31;18.07;;;7.50;;
75441;SDS011;64019;48.312;14.226;2023-03-01T15:59:56;17.87;;;7.67;;
75441;SDS011;64019;48.312;14.226;2023-03-01T16:02:23;13.50;;;7.10;;
75441;SDS011;64019;48.312;14.226;2023-03-01T16:04:49;16.67;;;8.27;;
75441;SDS011;64019;48.312;14.226;2023-03-01T16:07:16;18.57;;;7.93;;
75441;SDS011;64019;48.312;14.226;2023-03-01T16:09:42;19.70;;;8.40;;
75441;SDS011;64019;48.312;14.226;2023-03-01T16:12:13;17.33;;;7.90;;
75441;SDS011;64019;48.312;14.226;2023-03-01T16:14:40;21.00;;;8.43;;
75441;SDS011;64019;48.312;14.226;2023-03-01T16:17:05;18.20;;;7.97;;
75441;SDS011;64019;48.312;14.226;2023-03-01T16:19:34;18.97;;;8.33;;
75441;SDS011;64019;48.312;14.226;2023-03-01T16:22:02;16.70;;;8.30;;
75441;SDS011;64019;48.312;14.226;2023-03-01T16:24:28;18.23;;;8.47;;
75441;SDS011;64019;48.312;14.226;2023-03-01T16:26:53;22.83;;;9.33;;
75441;SDS011;64019;48.312;14.226;2023-03-01T16:29:19;20.23;;;8.60;;
75441;SDS011;64019;48.312;14.226;2023-03-01T16:31:45;19.53;;;8.40;;
75441;SDS011;64019;48.312;14.226;2023-03-01T16:34:11;24.23;;;8.57;;
75441;SDS011;64019;48.312;14.226;2023-03-01T16:36:37;17.23;;;8.10;;
75441;SDS011;64019;48.312;14.226;2023-03-01T16:39:03;17.63;;;7.83;;
75441;SDS011;64019;48.312;14.226;2023-03-01T16:41:29;20.37;;;9.23;;
75441;SDS011;64019;48.312;14.226;2023-03-01T16:43:55;22.30;;;10.20;;
75441;SDS011;64019;48.312;14.226;2023-03-01T16:46:22;24.87;;;10.10;;